createdAt,value
2023-04-06T00:02:03.944Z,-0.03
2023-04-06T00:04:31.789Z,-0.05
2023-04-06T00:06:59.361Z,-0.08
2023-04-06T00:09:27.222Z,-0.11
2023-04-06T00:11:54.785Z,-0.23
2023-04-06T00:14:22.501Z,-0.55
2023-04-06T00:16:50.162Z,-0.46
2023-04-06T00:19:19.156Z,-0.41
2023-04-06T00:21:46.775Z,-0.39
2023-04-06T00:24:14.615Z,-0.36
2023-04-06T00:26:42.233Z,-0.34
2023-04-06T00:29:10.752Z,-0.34
2023-04-06T00:31:38.516Z,-0.35
2023-04-06T00:34:06.241Z,-0.33
2023-04-06T00:36:35.346Z,-0.39
2023-04-06T00:39:03.036Z,-0.42
2023-04-06T00:41:30.747Z,-0.41
2023-04-06T00:43:58.816Z,-0.45
2023-04-06T00:46:26.501Z,-0.51
2023-04-06T00:48:54.406Z,-0.49
2023-04-06T00:51:21.986Z,-0.50
2023-04-06T00:53:50.994Z,-0.50
2023-04-06T00:56:19.405Z,-0.56
2023-04-06T00:58:53.199Z,-0.61
2023-04-06T01:01:21.400Z,-0.62
2023-04-06T01:03:51.687Z,-0.67
2023-04-06T01:06:21.049Z,-0.67
2023-04-06T01:08:59.047Z,-0.65
2023-04-06T01:11:28.761Z,-0.66
2023-04-06T01:13:56.581Z,-0.69
2023-04-06T01:16:28.815Z,-0.71
2023-04-06T01:19:11.446Z,-0.71
2023-04-06T01:21:43.384Z,-0.74
2023-04-06T01:24:21.057Z,-0.77
2023-04-06T01:27:00.105Z,-0.76
2023-04-06T01:29:33.240Z,-0.75
2023-04-06T01:32:02.723Z,-0.81
2023-04-06T01:34:35.836Z,-0.95
2023-04-06T01:37:06.142Z,-1.01
2023-04-06T01:39:35.252Z,-1.13
2023-04-06T01:42:05.800Z,-1.17
2023-04-06T01:44:36.411Z,-1.24
2023-04-06T01:47:11.657Z,-1.24
2023-04-06T01:49:39.707Z,-1.27
2023-04-06T01:52:07.534Z,-1.35
2023-04-06T01:54:39.619Z,-1.32
2023-04-06T01:57:22.093Z,-1.33
2023-04-06T02:00:00.273Z,-1.30
2023-04-06T02:02:57.052Z,-1.28
2023-04-06T02:05:27.891Z,-1.24
2023-04-06T02:07:57.356Z,-1.20
2023-04-06T02:10:35.223Z,-1.21
2023-04-06T02:13:10.864Z,-1.20
2023-04-06T02:15:39.656Z,-1.20
2023-04-06T02:18:07.318Z,-1.20
2023-04-06T02:20:35.140Z,-1.21
2023-04-06T02:23:02.691Z,-1.13
2023-04-06T02:25:30.404Z,-1.12
2023-04-06T02:27:59.380Z,-1.08
2023-04-06T02:30:32.863Z,-1.16
2023-04-06T02:33:01.172Z,-1.16
2023-04-06T02:35:36.117Z,-1.12
2023-04-06T02:38:03.943Z,-1.15
2023-04-06T02:40:31.747Z,-1.20
2023-04-06T02:43:07.304Z,-1.21
2023-04-06T02:45:35.269Z,-1.23
2023-04-06T02:48:04.171Z,-1.20
2023-04-06T02:50:33.442Z,-1.22
2023-04-06T02:53:04.969Z,-1.24
2023-04-06T02:55:33.616Z,-1.26
2023-04-06T02:58:01.364Z,-1.41
2023-04-06T03:00:39.376Z,-1.59
2023-04-06T03:03:08.543Z,-1.50
2023-04-06T03:05:36.547Z,-1.52
2023-04-06T03:08:04.147Z,-1.47
2023-04-06T03:10:41.859Z,-1.42
2023-04-06T03:13:09.745Z,-1.54
2023-04-06T03:15:48.751Z,-1.55
2023-04-06T03:18:23.427Z,-1.56
2023-04-06T03:20:52.495Z,-1.57
2023-04-06T03:23:21.740Z,-1.59
2023-04-06T03:25:54.359Z,-1.53
2023-04-06T03:28:22.773Z,-1.54
2023-04-06T03:30:56.322Z,-1.52
2023-04-06T03:33:46.922Z,-1.50
2023-04-06T03:36:26.428Z,-1.50
2023-04-06T03:38:55.831Z,-1.51
2023-04-06T03:41:23.540Z,-1.61
2023-04-06T03:44:05.876Z,-1.60
2023-04-06T03:46:34.858Z,-1.56
2023-04-06T03:49:02.479Z,-1.52
2023-04-06T03:51:30.937Z,-1.45
2023-04-06T03:53:58.708Z,-1.37
2023-04-06T03:56:26.283Z,-1.39
2023-04-06T03:58:55.751Z,-1.36
2023-04-06T04:01:23.486Z,-1.37
2023-04-06T04:03:53.183Z,-1.47
2023-04-06T04:06:21.065Z,-1.49
2023-04-06T04:08:48.670Z,-1.52
2023-04-06T04:11:16.797Z,-1.53
2023-04-06T04:13:46.813Z,-1.53
2023-04-06T04:16:15.138Z,-1.55
2023-04-06T04:18:44.521Z,-1.53
2023-04-06T04:21:13.572Z,-1.53
2023-04-06T04:23:41.187Z,-1.67
2023-04-06T04:26:09.095Z,-1.65
2023-04-06T04:28:36.694Z,-1.72
2023-04-06T04:31:04.717Z,-1.88
2023-04-06T04:33:35.739Z,-1.83
2023-04-06T04:36:11.192Z,-1.78
2023-04-06T04:38:44.160Z,-1.77
2023-04-06T04:41:12.551Z,-1.78
2023-04-06T04:43:43.564Z,-1.75
2023-04-06T04:46:13.430Z,-1.76
2023-04-06T04:48:43.779Z,-1.73
2023-04-06T04:51:11.588Z,-1.69
2023-04-06T04:53:54.116Z,-1.67
2023-04-06T04:56:26.280Z,-1.68
2023-04-06T04:58:59.225Z,-1.64
2023-04-06T05:01:30.301Z,-1.65
2023-04-06T05:04:02.070Z,-1.63
2023-04-06T05:06:30.008Z,-1.53
2023-04-06T05:08:59.032Z,-1.48
2023-04-06T05:11:27.503Z,-1.32
2023-04-06T05:14:02.066Z,-1.16
2023-04-06T05:16:30.328Z,-1.01
2023-04-06T05:18:58.020Z,-0.90
2023-04-06T05:21:32.727Z,-0.83
2023-04-06T05:24:07.012Z,-0.71
2023-04-06T05:26:35.439Z,-0.59
2023-04-06T05:29:09.522Z,-0.44
2023-04-06T05:31:39.349Z,-0.31
2023-04-06T05:34:07.120Z,-0.22
2023-04-06T05:36:38.028Z,-0.20
2023-04-06T05:39:14.854Z,-0.18
2023-04-06T05:41:46.651Z,-0.31
2023-04-06T05:44:15.594Z,-0.23
2023-04-06T05:46:47.458Z,-0.18
2023-04-06T05:49:17.746Z,-0.10
2023-04-06T05:51:45.771Z,-0.11
2023-04-06T05:54:14.720Z,-0.01
2023-04-06T05:56:43.103Z,0.07
2023-04-06T05:59:13.137Z,0.14
2023-04-06T06:01:42.101Z,0.22
2023-04-06T06:04:10.947Z,0.42
2023-04-06T06:06:40.558Z,0.68
2023-04-06T06:09:17.284Z,0.84
2023-04-06T06:11:58.608Z,0.97
2023-04-06T06:14:29.374Z,1.07
2023-04-06T06:16:57.368Z,1.15
2023-04-06T06:19:24.953Z,1.32
2023-04-06T06:21:56.077Z,1.29
2023-04-06T06:24:25.024Z,1.46
2023-04-06T06:26:52.876Z,1.63
2023-04-06T06:29:24.780Z,1.67
2023-04-06T06:31:52.761Z,1.74
2023-04-06T06:34:20.390Z,1.75
2023-04-06T06:36:49.381Z,1.77
2023-04-06T06:39:18.129Z,1.95
2023-04-06T06:41:47.050Z,2.21
2023-04-06T06:44:15.005Z,2.22
2023-04-06T06:46:42.809Z,2.46
2023-04-06T06:49:13.038Z,2.61
2023-04-06T06:51:40.649Z,2.62
2023-04-06T06:54:08.926Z,2.79
2023-04-06T06:56:38.994Z,2.80
2023-04-06T06:59:08.184Z,2.95
2023-04-06T07:01:37.008Z,3.07
2023-04-06T07:04:04.659Z,3.21
2023-04-06T07:06:32.425Z,3.29
2023-04-06T07:09:00.016Z,3.27
2023-04-06T07:11:27.612Z,3.46
2023-04-06T07:13:55.335Z,3.37
2023-04-06T07:16:24.363Z,3.47
2023-04-06T07:18:52.303Z,3.75
2023-04-06T07:21:20.537Z,4.04
2023-04-06T07:23:49.227Z,4.14
2023-04-06T07:26:17.853Z,4.31
2023-04-06T07:28:45.547Z,4.57
2023-04-06T07:31:14.400Z,4.82
2023-04-06T07:33:43.434Z,5.08
2023-04-06T07:36:11.225Z,5.40
2023-04-06T07:38:38.984Z,5.70
2023-04-06T07:41:07.370Z,5.96
2023-04-06T07:43:36.307Z,6.12
2023-04-06T07:46:05.589Z,5.96
2023-04-06T07:48:33.332Z,6.09
2023-04-06T07:51:07.270Z,6.43
2023-04-06T07:53:38.888Z,6.69
2023-04-06T07:56:06.890Z,6.77
2023-04-06T07:58:34.656Z,7.09
2023-04-06T08:01:03.031Z,7.29
2023-04-06T08:03:30.972Z,7.48
2023-04-06T08:05:58.680Z,7.60
2023-04-06T08:08:27.662Z,7.71
2023-04-06T08:10:55.208Z,7.56
2023-04-06T08:13:23.043Z,7.90
2023-04-06T08:15:50.669Z,8.12
2023-04-06T08:18:18.503Z,8.22
2023-04-06T08:20:46.046Z,8.62
2023-04-06T08:23:14.250Z,9.00
2023-04-06T08:25:44.157Z,9.09
2023-04-06T08:28:12.281Z,9.29
2023-04-06T08:30:41.752Z,9.58
2023-04-06T08:33:09.455Z,9.52
2023-04-06T08:35:37.208Z,9.02
2023-04-06T08:38:04.953Z,9.09
2023-04-06T08:40:37.454Z,9.40
2023-04-06T08:43:10.869Z,9.90
2023-04-06T08:45:38.766Z,9.89
2023-04-06T08:48:07.747Z,9.89
2023-04-06T08:50:36.293Z,10.10
2023-04-06T08:53:04.506Z,9.85
2023-04-06T08:55:32.696Z,10.31
2023-04-06T08:58:01.562Z,10.63
2023-04-06T09:00:31.314Z,10.75
2023-04-06T09:02:59.583Z,10.76
2023-04-06T09:05:27.713Z,10.89
2023-04-06T09:07:56.508Z,11.06
2023-04-06T09:10:26.664Z,11.33
2023-04-06T09:13:05.211Z,11.39
2023-04-06T09:15:34.224Z,11.61
2023-04-06T09:18:02.084Z,12.31
2023-04-06T09:20:30.349Z,12.92
2023-04-06T09:22:57.991Z,13.24
2023-04-06T09:25:27.520Z,13.36
2023-04-06T09:28:01.888Z,13.33
2023-04-06T09:30:29.710Z,13.55
2023-04-06T09:33:00.253Z,14.02
2023-04-06T09:35:28.577Z,14.25
2023-04-06T09:37:57.517Z,14.09
2023-04-06T09:40:25.779Z,13.67
2023-04-06T09:42:55.224Z,13.64
2023-04-06T09:45:22.938Z,14.09
2023-04-06T09:47:52.337Z,14.36
2023-04-06T09:50:21.777Z,14.01
2023-04-06T09:52:51.344Z,14.84
2023-04-06T09:55:25.624Z,15.11
2023-04-06T09:57:59.600Z,14.61
2023-04-06T10:00:29.314Z,15.33
2023-04-06T10:03:04.034Z,14.98
2023-04-06T10:05:38.083Z,14.42
2023-04-06T10:08:08.894Z,13.31
2023-04-06T10:10:36.830Z,13.42
2023-04-06T10:13:05.527Z,12.74
2023-04-06T10:15:33.987Z,11.72
2023-04-06T10:18:03.021Z,12.03
2023-04-06T10:20:37.944Z,12.05
2023-04-06T10:23:10.484Z,12.24
2023-04-06T10:25:38.782Z,12.01
2023-04-06T10:28:07.907Z,12.58
2023-04-06T10:30:36.271Z,13.20
2023-04-06T10:33:15.462Z,14.16
2023-04-06T10:35:44.597Z,14.02
2023-04-06T10:38:13.435Z,15.09
2023-04-06T10:40:43.872Z,15.38
2023-04-06T10:43:12.816Z,15.77
2023-04-06T10:45:41.659Z,15.23
2023-04-06T10:48:16.983Z,15.51
2023-04-06T10:50:48.826Z,15.85
2023-04-06T10:53:23.643Z,15.40
2023-04-06T10:55:52.297Z,15.89
2023-04-06T10:58:20.366Z,16.54
2023-04-06T11:00:51.260Z,16.10
2023-04-06T11:03:19.909Z,15.92
2023-04-06T11:05:50.534Z,15.81
2023-04-06T11:08:25.603Z,15.89
2023-04-06T11:10:53.243Z,16.00
2023-04-06T11:13:20.834Z,15.98
2023-04-06T11:15:50.052Z,14.52
2023-04-06T11:18:19.609Z,14.26
2023-04-06T11:20:51.111Z,14.32
2023-04-06T11:23:24.683Z,13.76
2023-04-06T11:25:53.738Z,14.39
2023-04-06T11:28:22.023Z,15.20
2023-04-06T11:30:50.724Z,15.98
2023-04-06T11:33:23.299Z,16.25
2023-04-06T11:35:52.588Z,15.53
2023-04-06T11:38:21.017Z,14.03
2023-04-06T11:40:48.763Z,14.00
2023-04-06T11:43:16.364Z,13.68
2023-04-06T11:45:44.767Z,13.81
2023-04-06T11:48:21.701Z,13.90
2023-04-06T11:50:50.064Z,13.54
2023-04-06T11:53:19.012Z,13.64
2023-04-06T11:55:48.214Z,13.39
2023-04-06T11:58:15.959Z,12.29
2023-04-06T12:00:47.446Z,12.42
2023-04-06T12:03:15.670Z,12.39
2023-04-06T12:05:43.603Z,12.71
2023-04-06T12:08:11.197Z,12.74
2023-04-06T12:10:40.430Z,13.31
2023-04-06T12:13:08.015Z,13.98
2023-04-06T12:15:35.737Z,14.58
2023-04-06T12:18:03.567Z,14.62
2023-04-06T12:20:31.348Z,13.97
2023-04-06T12:22:58.943Z,14.57
2023-04-06T12:25:26.529Z,15.25
2023-04-06T12:27:56.169Z,14.94
2023-04-06T12:30:23.755Z,14.31
2023-04-06T12:32:52.373Z,14.07
2023-04-06T12:35:20.532Z,14.37
2023-04-06T12:37:48.087Z,14.13
2023-04-06T12:40:15.944Z,13.01
2023-04-06T12:42:43.712Z,13.35
2023-04-06T12:45:13.482Z,13.67
2023-04-06T12:47:41.335Z,13.15
2023-04-06T12:50:09.604Z,13.65
2023-04-06T12:52:37.508Z,13.66
2023-04-06T12:55:06.149Z,13.78
2023-04-06T12:57:33.937Z,13.65
2023-04-06T13:00:01.608Z,13.70
2023-04-06T13:02:32.275Z,13.97
2023-04-06T13:04:59.896Z,13.57
2023-04-06T13:07:27.832Z,13.45
2023-04-06T13:09:55.590Z,13.85
2023-04-06T13:12:23.899Z,13.81
2023-04-06T13:14:53.466Z,14.64
2023-04-06T13:17:22.105Z,15.38
2023-04-06T13:19:51.294Z,15.17
2023-04-06T13:22:19.154Z,14.52
2023-04-06T13:24:47.124Z,14.57
2023-04-06T13:27:14.765Z,14.69
2023-04-06T13:29:42.348Z,14.96
2023-04-06T13:32:11.179Z,15.46
2023-04-06T13:34:38.867Z,15.33
2023-04-06T13:37:08.049Z,15.23
2023-04-06T13:39:35.672Z,14.98
2023-04-06T13:42:04.091Z,15.11
2023-04-06T13:44:31.873Z,15.27
2023-04-06T13:46:59.490Z,15.50
2023-04-06T13:49:27.614Z,14.74
2023-04-06T13:51:55.233Z,15.84
2023-04-06T13:54:24.141Z,14.89
2023-04-06T13:56:53.277Z,14.83
2023-04-06T13:59:20.978Z,15.07
2023-04-06T14:01:49.591Z,15.28
2023-04-06T14:04:17.183Z,15.45
2023-04-06T14:06:46.635Z,15.40
2023-04-06T14:09:14.481Z,14.81
2023-04-06T14:11:43.418Z,15.42
2023-04-06T14:14:11.478Z,15.42
2023-04-06T14:16:39.123Z,15.32
2023-04-06T14:19:06.959Z,16.28
2023-04-06T14:21:34.572Z,16.57
2023-04-06T14:24:02.722Z,16.55
2023-04-06T14:26:30.354Z,16.02
2023-04-06T14:29:01.158Z,15.57
2023-04-06T14:31:29.038Z,15.26
2023-04-06T14:33:56.818Z,15.67
2023-04-06T14:36:28.138Z,15.47
2023-04-06T14:38:55.963Z,15.48
2023-04-06T14:41:24.877Z,13.61
2023-04-06T14:43:53.726Z,13.52
2023-04-06T14:46:22.783Z,13.38
2023-04-06T14:48:50.661Z,13.17
2023-04-06T14:51:18.358Z,12.88
2023-04-06T14:53:46.851Z,13.96
2023-04-06T14:56:14.641Z,14.89
2023-04-06T14:58:42.537Z,15.61
2023-04-06T15:01:10.139Z,15.91
2023-04-06T15:03:39.245Z,16.53
2023-04-06T15:06:07.833Z,17.09
2023-04-06T15:08:35.770Z,17.22
2023-04-06T15:11:03.376Z,17.93
2023-04-06T15:13:31.145Z,17.49
2023-04-06T15:16:00.542Z,15.71
2023-04-06T15:18:29.692Z,15.13
2023-04-06T15:20:58.779Z,14.94
2023-04-06T15:23:26.660Z,14.55
2023-04-06T15:25:54.283Z,13.63
2023-04-06T15:28:22.536Z,13.92
2023-04-06T15:30:50.147Z,14.93
2023-04-06T15:33:18.339Z,15.43
2023-04-06T15:35:46.698Z,16.07
2023-04-06T15:38:16.253Z,16.44
2023-04-06T15:40:45.495Z,17.32
2023-04-06T15:43:13.812Z,17.73
2023-04-06T15:45:41.779Z,18.53
2023-04-06T15:48:10.104Z,17.73
2023-04-06T15:50:37.892Z,18.51
2023-04-06T15:53:05.946Z,18.98
2023-04-06T15:55:34.969Z,18.13
2023-04-06T15:58:02.578Z,17.45
2023-04-06T16:00:30.520Z,17.15
2023-04-06T16:02:58.226Z,16.31
2023-04-06T16:05:28.314Z,15.30
2023-04-06T16:07:57.358Z,15.80
2023-04-06T16:10:25.376Z,16.56
2023-04-06T16:12:54.319Z,16.20
2023-04-06T16:15:22.148Z,16.43
2023-04-06T16:17:50.344Z,16.11
2023-04-06T16:20:18.218Z,15.95
2023-04-06T16:22:45.867Z,15.85
2023-04-06T16:25:13.589Z,15.14
2023-04-06T16:27:41.450Z,14.69
2023-04-06T16:30:11.672Z,14.46
2023-04-06T16:32:39.323Z,14.02
2023-04-06T16:35:14.347Z,14.01
2023-04-06T16:37:41.907Z,13.68
2023-04-06T16:40:10.894Z,13.58
2023-04-06T16:42:38.478Z,13.58
2023-04-06T16:45:07.278Z,13.81
2023-04-06T16:47:36.799Z,13.68
2023-04-06T16:50:06.433Z,14.07
2023-04-06T16:52:34.588Z,14.54
2023-04-06T16:55:02.232Z,14.60
2023-04-06T16:57:30.032Z,14.66
2023-04-06T16:59:57.911Z,14.60
2023-04-06T17:02:25.898Z,14.37
2023-04-06T17:04:55.157Z,13.99
2023-04-06T17:07:26.403Z,13.57
2023-04-06T17:09:54.362Z,13.23
2023-04-06T17:12:21.928Z,13.05
2023-04-06T17:14:49.822Z,12.89
2023-04-06T17:17:17.597Z,12.80
2023-04-06T17:19:45.386Z,12.70
2023-04-06T17:22:20.271Z,12.60
2023-04-06T17:24:49.141Z,12.47
2023-04-06T17:27:17.225Z,12.38
2023-04-06T17:29:45.006Z,12.28
2023-04-06T17:32:12.805Z,12.18
2023-04-06T17:34:40.519Z,12.06
2023-04-06T17:37:08.264Z,11.96
2023-04-06T17:39:37.324Z,11.84
2023-04-06T17:42:06.044Z,11.74
2023-04-06T17:44:34.136Z,11.61
2023-04-06T17:47:02.175Z,11.46
2023-04-06T17:49:29.781Z,11.32
2023-04-06T17:51:57.524Z,11.25
2023-04-06T17:54:25.313Z,11.11
2023-04-06T17:56:54.301Z,11.03
2023-04-06T17:59:21.863Z,10.95
2023-04-06T18:01:49.788Z,10.85
2023-04-06T18:04:17.533Z,10.73
2023-04-06T18:06:45.456Z,10.54
2023-04-06T18:09:13.209Z,10.39
2023-04-06T18:11:41.600Z,10.26
2023-04-06T18:14:12.508Z,10.12
2023-04-06T18:16:41.261Z,10.01
2023-04-06T18:19:09.004Z,10.01
2023-04-06T18:21:36.923Z,9.85
2023-04-06T18:24:05.870Z,9.71
2023-04-06T18:26:35.586Z,9.61
2023-04-06T18:29:03.258Z,9.58
2023-04-06T18:31:32.494Z,9.55
2023-04-06T18:34:00.439Z,9.49
2023-04-06T18:36:28.512Z,9.46
2023-04-06T18:38:56.156Z,9.46
2023-04-06T18:41:24.176Z,9.31
2023-04-06T18:43:51.924Z,9.15
2023-04-06T18:46:20.406Z,9.09
2023-04-06T18:48:49.410Z,9.00
2023-04-06T18:51:17.282Z,8.86
2023-04-06T18:53:44.981Z,8.84
2023-04-06T18:56:17.584Z,8.90
2023-04-06T18:58:48.030Z,8.81
2023-04-06T19:01:22.024Z,8.81
2023-04-06T19:03:51.246Z,8.78
2023-04-06T19:06:19.375Z,8.77
2023-04-06T19:08:47.544Z,8.80
2023-04-06T19:11:15.649Z,8.77
2023-04-06T19:13:46.218Z,8.81
2023-04-06T19:16:14.084Z,8.82
2023-04-06T19:18:42.688Z,8.80
2023-04-06T19:21:17.861Z,8.82
2023-04-06T19:23:45.750Z,8.79
2023-04-06T19:26:14.639Z,8.72
2023-04-06T19:28:42.406Z,8.62
2023-04-06T19:31:11.237Z,8.52
2023-04-06T19:33:40.405Z,8.46
2023-04-06T19:36:09.118Z,8.37
2023-04-06T19:38:38.981Z,8.35
2023-04-06T19:41:07.150Z,8.31
2023-04-06T19:43:35.141Z,8.26
2023-04-06T19:46:02.861Z,8.23
2023-04-06T19:48:30.609Z,8.24
2023-04-06T19:50:58.238Z,8.12
2023-04-06T19:53:26.020Z,8.15
2023-04-06T19:55:54.965Z,8.17
2023-04-06T19:58:23.579Z,8.16
2023-04-06T20:00:51.330Z,8.13
2023-04-06T20:03:19.162Z,8.02
2023-04-06T20:05:47.263Z,8.00
2023-04-06T20:08:14.912Z,7.92
2023-04-06T20:10:42.502Z,7.93
2023-04-06T20:13:11.702Z,7.89
2023-04-06T20:15:39.257Z,7.86
2023-04-06T20:18:06.895Z,7.93
2023-04-06T20:20:34.543Z,7.94
2023-04-06T20:23:02.133Z,7.91
2023-04-06T20:25:29.853Z,7.91
2023-04-06T20:27:57.685Z,7.92
2023-04-06T20:30:27.067Z,7.93
2023-04-06T20:32:54.759Z,7.91
2023-04-06T20:35:22.519Z,7.89
2023-04-06T20:37:51.072Z,7.90
2023-04-06T20:40:18.957Z,7.91
2023-04-06T20:42:48.004Z,7.90
2023-04-06T20:45:15.621Z,7.91
2023-04-06T20:47:45.291Z,7.90
2023-04-06T20:50:13.422Z,7.90
2023-04-06T20:52:41.327Z,7.89
2023-04-06T20:55:09.498Z,7.92
2023-04-06T20:57:37.199Z,7.90
2023-04-06T21:00:05.909Z,7.88
2023-04-06T21:02:33.806Z,7.89
2023-04-06T21:05:02.926Z,7.81
2023-04-06T21:07:31.456Z,7.74
2023-04-06T21:09:59.542Z,7.70
2023-04-06T21:12:28.263Z,7.69
2023-04-06T21:14:56.461Z,7.78
2023-04-06T21:17:24.616Z,7.51
2023-04-06T21:19:52.591Z,7.49
2023-04-06T21:22:21.630Z,7.59
2023-04-06T21:24:49.512Z,7.66
2023-04-06T21:27:17.110Z,7.63
2023-04-06T21:29:44.733Z,7.42
2023-04-06T21:32:12.318Z,7.39
2023-04-06T21:34:42.632Z,7.44
2023-04-06T21:37:10.305Z,7.34
2023-04-06T21:39:39.809Z,7.26
2023-04-06T21:42:07.488Z,7.22
2023-04-06T21:44:35.727Z,7.10
2023-04-06T21:47:03.478Z,6.91
2023-04-06T21:49:31.646Z,6.91
2023-04-06T21:51:59.431Z,6.90
2023-04-06T21:54:27.003Z,6.90
2023-04-06T21:56:56.060Z,6.86
2023-04-06T21:59:23.871Z,6.93
2023-04-06T22:01:51.535Z,6.87
2023-04-06T22:04:19.736Z,6.91
2023-04-06T22:06:47.879Z,6.55
2023-04-06T22:09:15.508Z,6.62
2023-04-06T22:11:43.150Z,6.61
2023-04-06T22:14:12.843Z,6.74
2023-04-06T22:16:40.433Z,6.75
2023-04-06T22:19:08.149Z,6.70
2023-04-06T22:21:35.811Z,6.73
2023-04-06T22:24:03.574Z,6.72
2023-04-06T22:26:31.181Z,6.75
2023-04-06T22:28:58.924Z,6.78
2023-04-06T22:31:28.076Z,6.86
2023-04-06T22:33:55.801Z,6.94
2023-04-06T22:36:24.405Z,7.11
2023-04-06T22:38:51.991Z,7.13
2023-04-06T22:41:19.651Z,7.15
2023-04-06T22:43:47.313Z,7.19
2023-04-06T22:46:14.890Z,7.16
2023-04-06T22:48:43.781Z,7.10
2023-04-06T22:51:11.341Z,7.08
2023-04-06T22:53:39.155Z,7.05
2023-04-06T22:56:06.732Z,6.97
2023-04-06T22:58:34.560Z,6.85
2023-04-06T23:01:02.147Z,6.76
2023-04-06T23:03:29.762Z,6.69
2023-04-06T23:05:58.776Z,6.73
2023-04-06T23:08:26.495Z,6.77
2023-04-06T23:10:54.061Z,6.84
2023-04-06T23:13:21.757Z,6.95
2023-04-06T23:15:49.616Z,7.06
2023-04-06T23:18:17.255Z,7.17
2023-04-06T23:20:45.146Z,7.25
2023-04-06T23:23:14.059Z,7.43
2023-04-06T23:25:41.759Z,7.54
2023-04-06T23:28:09.366Z,7.56
2023-04-06T23:30:37.463Z,7.56
2023-04-06T23:33:05.204Z,7.65
2023-04-06T23:35:32.932Z,7.64
2023-04-06T23:38:00.572Z,7.69
2023-04-06T23:40:29.585Z,7.47
2023-04-06T23:42:57.158Z,7.36
2023-04-06T23:45:24.955Z,7.29
2023-04-06T23:47:52.576Z,7.38
2023-04-06T23:50:20.478Z,7.33
2023-04-06T23:52:48.062Z,7.38
2023-04-06T23:55:15.816Z,7.07
2023-04-06T23:57:44.708Z,6.89
